Hovedside
METAR-TAF:

METAR-TAF

Lufthavner :

Helsingfors-Vanda lufthavn

Helsingfors, Finland

breddegrad: 60-19N, lengdegrad: 024-58E, høyde over havet: 51 m

Gjeldene værobservasjon

Denne rapporten ble laget for 32 minutter siden, klokken 19:20 UTC
Vind 6 kt fra Sør-sørøst
Temperatur 17°C
Luftfuktighet 72%
Trykk 1019 hPa
Sikt 10 km eller mer
Få skyer i en høyde av 3000 ft
Spredte skyer i en høyde av 20000 ft

METAR: EFHK 161920Z 15006KT 9999 FEW030 SCT200 17/12 Q1019 NOSIG

Tid: 22:52 (19:52 UTC)

Varsel

Denne rapporten ble laget for 2 timer og 16 minutter siden, klokken 17:36 UTC
Varsel gyldig fra 16. klokken 18 UTC til 17. klokken 18 UTC
Vind 7 kt fra Sør-sørøst
Sikt 10 km eller mer
ingen skyer under 1500 m og ingen bygeskyer

TAF: EFHK 161736Z 1618/1718 16007KT CAVOK

Værobservasjoner og værvarsel for over 4000 flyplasser (METAR- og TAF-rapporter).

Tilgjengelige stasjoner er representert av de røde og gule prikkene på kartet.

Hold musepekeren over prikken for å se navnet på stasjonen.

Klikk så for å se værobservasjoner og -varsler.

For å forandre kartet kan du klikke på den grønne knappen med svart kryss for å zoome inn, på den grønne knappen med strek for å zoome ut, eller på de grønne pilene for å se tilstøtende kart.


METAR-TAF: